sensor_id;sensor_type;location;lat;lon;timestamp;P1;durP1;ratioP1;P2;durP2;ratioP2
54328;SDS011;40710;51.120;13.136;2022-11-21T00:01:37;30.28;;;28.89;;
54328;SDS011;40710;51.120;13.136;2022-11-21T00:04:02;30.55;;;28.92;;
54328;SDS011;40710;51.120;13.136;2022-11-21T00:06:27;30.50;;;29.07;;
54328;SDS011;40710;51.120;13.136;2022-11-21T00:08:51;32.97;;;31.67;;
54328;SDS011;40710;51.120;13.136;2022-11-21T00:11:16;42.18;;;39.95;;
54328;SDS011;40710;51.120;13.136;2022-11-21T00:13:40;32.30;;;30.91;;
54328;SDS011;40710;51.120;13.136;2022-11-21T00:16:06;30.45;;;28.86;;
54328;SDS011;40710;51.120;13.136;2022-11-21T00:18:33;30.68;;;29.23;;
54328;SDS011;40710;51.120;13.136;2022-11-21T00:21:02;30.36;;;29.09;;
54328;SDS011;40710;51.120;13.136;2022-11-21T00:23:27;30.28;;;28.95;;
54328;SDS011;40710;51.120;13.136;2022-11-21T00:25:52;29.21;;;27.95;;
54328;SDS011;40710;51.120;13.136;2022-11-21T00:28:17;29.43;;;28.25;;
54328;SDS011;40710;51.120;13.136;2022-11-21T00:30:41;28.24;;;27.05;;
54328;SDS011;40710;51.120;13.136;2022-11-21T00:33:06;28.26;;;27.16;;
54328;SDS011;40710;51.120;13.136;2022-11-21T00:35:30;28.48;;;27.20;;
54328;SDS011;40710;51.120;13.136;2022-11-21T00:37:55;29.77;;;28.19;;
54328;SDS011;40710;51.120;13.136;2022-11-21T00:40:19;28.53;;;27.15;;
54328;SDS011;40710;51.120;13.136;2022-11-21T00:42:44;28.38;;;27.30;;
54328;SDS011;40710;51.120;13.136;2022-11-21T00:45:09;28.97;;;27.65;;
54328;SDS011;40710;51.120;13.136;2022-11-21T00:47:33;28.12;;;26.96;;
54328;SDS011;40710;51.120;13.136;2022-11-21T00:49:58;28.30;;;27.16;;
54328;SDS011;40710;51.120;13.136;2022-11-21T00:52:22;27.51;;;26.16;;
54328;SDS011;40710;51.120;13.136;2022-11-21T00:54:47;27.53;;;26.20;;
54328;SDS011;40710;51.120;13.136;2022-11-21T00:57:11;27.04;;;25.72;;
54328;SDS011;40710;51.120;13.136;2022-11-21T00:59:36;27.26;;;25.94;;
54328;SDS011;40710;51.120;13.136;2022-11-21T01:02:00;27.02;;;25.94;;
54328;SDS011;40710;51.120;13.136;2022-11-21T01:04:25;27.05;;;26.00;;
54328;SDS011;40710;51.120;13.136;2022-11-21T01:06:54;26.93;;;25.86;;
54328;SDS011;40710;51.120;13.136;2022-11-21T01:09:18;26.76;;;25.39;;
54328;SDS011;40710;51.120;13.136;2022-11-21T01:11:43;25.20;;;24.16;;
54328;SDS011;40710;51.120;13.136;2022-11-21T01:14:07;26.32;;;25.13;;
54328;SDS011;40710;51.120;13.136;2022-11-21T01:16:32;27.33;;;26.00;;
54328;SDS011;40710;51.120;13.136;2022-11-21T01:18:57;28.34;;;27.12;;
54328;SDS011;40710;51.120;13.136;2022-11-21T01:23:48;29.61;;;27.93;;
54328;SDS011;40710;51.120;13.136;2022-11-21T01:26:18;29.24;;;27.83;;
54328;SDS011;40710;51.120;13.136;2022-11-21T01:28:44;29.69;;;28.45;;
54328;SDS011;40710;51.120;13.136;2022-11-21T01:31:10;29.86;;;28.28;;
54328;SDS011;40710;51.120;13.136;2022-11-21T01:33:39;30.11;;;28.88;;
54328;SDS011;40710;51.120;13.136;2022-11-21T01:36:08;30.05;;;28.62;;
54328;SDS011;40710;51.120;13.136;2022-11-21T01:38:34;29.73;;;28.24;;
54328;SDS011;40710;51.120;13.136;2022-11-21T01:40:59;29.80;;;28.66;;
54328;SDS011;40710;51.120;13.136;2022-11-21T01:43:23;28.86;;;27.52;;
54328;SDS011;40710;51.120;13.136;2022-11-21T01:45:56;29.63;;;28.29;;
54328;SDS011;40710;51.120;13.136;2022-11-21T01:48:23;28.67;;;27.51;;
54328;SDS011;40710;51.120;13.136;2022-11-21T01:50:59;27.91;;;26.63;;
54328;SDS011;40710;51.120;13.136;2022-11-21T01:53:31;28.14;;;26.81;;
54328;SDS011;40710;51.120;13.136;2022-11-21T01:55:57;27.90;;;26.43;;
54328;SDS011;40710;51.120;13.136;2022-11-21T01:58:22;28.01;;;26.74;;
54328;SDS011;40710;51.120;13.136;2022-11-21T02:00:47;27.71;;;26.62;;
54328;SDS011;40710;51.120;13.136;2022-11-21T02:03:14;27.86;;;26.62;;
54328;SDS011;40710;51.120;13.136;2022-11-21T02:05:45;28.27;;;27.07;;
54328;SDS011;40710;51.120;13.136;2022-11-21T02:08:15;27.59;;;26.21;;
54328;SDS011;40710;51.120;13.136;2022-11-21T02:10:46;28.24;;;26.77;;
54328;SDS011;40710;51.120;13.136;2022-11-21T02:13:23;27.67;;;26.40;;
54328;SDS011;40710;51.120;13.136;2022-11-21T02:15:48;27.60;;;26.55;;
54328;SDS011;40710;51.120;13.136;2022-11-21T02:18:13;27.24;;;26.22;;
54328;SDS011;40710;51.120;13.136;2022-11-21T02:20:37;27.08;;;26.17;;
54328;SDS011;40710;51.120;13.136;2022-11-21T02:23:13;27.24;;;26.03;;
54328;SDS011;40710;51.120;13.136;2022-11-21T02:25:41;24.12;;;23.16;;
54328;SDS011;40710;51.120;13.136;2022-11-21T02:28:18;20.67;;;19.87;;
54328;SDS011;40710;51.120;13.136;2022-11-21T02:30:46;20.05;;;18.98;;
54328;SDS011;40710;51.120;13.136;2022-11-21T02:33:11;18.85;;;17.74;;
54328;SDS011;40710;51.120;13.136;2022-11-21T02:35:38;18.17;;;17.16;;
54328;SDS011;40710;51.120;13.136;2022-11-21T02:38:08;16.74;;;15.95;;
54328;SDS011;40710;51.120;13.136;2022-11-21T02:40:41;16.63;;;15.96;;
54328;SDS011;40710;51.120;13.136;2022-11-21T02:43:21;15.10;;;14.58;;
54328;SDS011;40710;51.120;13.136;2022-11-21T02:45:51;13.26;;;12.79;;
54328;SDS011;40710;51.120;13.136;2022-11-21T02:48:16;12.90;;;12.40;;
54328;SDS011;40710;51.120;13.136;2022-11-21T02:50:41;13.17;;;12.63;;
54328;SDS011;40710;51.120;13.136;2022-11-21T02:53:09;11.87;;;11.40;;
54328;SDS011;40710;51.120;13.136;2022-11-21T02:55:36;11.15;;;10.83;;
54328;SDS011;40710;51.120;13.136;2022-11-21T02:58:01;10.82;;;10.55;;
54328;SDS011;40710;51.120;13.136;2022-11-21T03:00:26;10.16;;;9.93;;
54328;SDS011;40710;51.120;13.136;2022-11-21T03:02:50;9.84;;;9.44;;
54328;SDS011;40710;51.120;13.136;2022-11-21T03:05:17;10.78;;;10.29;;
54328;SDS011;40710;51.120;13.136;2022-11-21T03:07:43;9.48;;;9.08;;
54328;SDS011;40710;51.120;13.136;2022-11-21T03:10:08;7.81;;;7.53;;
54328;SDS011;40710;51.120;13.136;2022-11-21T03:12:36;7.35;;;7.17;;
54328;SDS011;40710;51.120;13.136;2022-11-21T03:15:03;8.73;;;8.55;;
54328;SDS011;40710;51.120;13.136;2022-11-21T03:17:29;11.64;;;11.21;;
54328;SDS011;40710;51.120;13.136;2022-11-21T03:19:53;7.31;;;6.96;;
54328;SDS011;40710;51.120;13.136;2022-11-21T03:22:18;8.41;;;8.14;;
54328;SDS011;40710;51.120;13.136;2022-11-21T03:24:42;8.21;;;7.96;;
54328;SDS011;40710;51.120;13.136;2022-11-21T03:27:07;7.30;;;7.07;;
54328;SDS011;40710;51.120;13.136;2022-11-21T03:29:31;6.86;;;6.67;;
54328;SDS011;40710;51.120;13.136;2022-11-21T03:31:56;7.07;;;6.91;;
54328;SDS011;40710;51.120;13.136;2022-11-21T03:34:20;7.70;;;7.51;;
54328;SDS011;40710;51.120;13.136;2022-11-21T03:36:45;7.74;;;7.50;;
54328;SDS011;40710;51.120;13.136;2022-11-21T03:39:10;7.27;;;7.10;;
54328;SDS011;40710;51.120;13.136;2022-11-21T03:41:34;7.11;;;6.92;;
54328;SDS011;40710;51.120;13.136;2022-11-21T03:46:23;7.17;;;6.95;;
54328;SDS011;40710;51.120;13.136;2022-11-21T03:48:48;6.93;;;6.72;;
54328;SDS011;40710;51.120;13.136;2022-11-21T03:51:13;7.63;;;7.40;;
54328;SDS011;40710;51.120;13.136;2022-11-21T03:53:38;7.27;;;7.03;;
54328;SDS011;40710;51.120;13.136;2022-11-21T03:56:02;7.31;;;7.06;;
54328;SDS011;40710;51.120;13.136;2022-11-21T03:58:27;6.94;;;6.78;;
54328;SDS011;40710;51.120;13.136;2022-11-21T04:00:52;6.92;;;6.78;;
54328;SDS011;40710;51.120;13.136;2022-11-21T04:03:16;7.43;;;7.24;;
54328;SDS011;40710;51.120;13.136;2022-11-21T04:05:42;8.38;;;8.06;;
54328;SDS011;40710;51.120;13.136;2022-11-21T04:08:07;9.04;;;8.72;;
54328;SDS011;40710;51.120;13.136;2022-11-21T04:10:32;9.56;;;9.24;;
54328;SDS011;40710;51.120;13.136;2022-11-21T04:12:56;11.12;;;10.81;;
54328;SDS011;40710;51.120;13.136;2022-11-21T04:15:21;12.87;;;12.47;;
54328;SDS011;40710;51.120;13.136;2022-11-21T04:17:45;11.73;;;11.34;;
54328;SDS011;40710;51.120;13.136;2022-11-21T04:20:10;13.56;;;13.17;;
54328;SDS011;40710;51.120;13.136;2022-11-21T04:22:34;17.49;;;16.60;;
54328;SDS011;40710;51.120;13.136;2022-11-21T04:24:59;15.40;;;14.68;;
54328;SDS011;40710;51.120;13.136;2022-11-21T04:27:24;17.91;;;17.20;;
54328;SDS011;40710;51.120;13.136;2022-11-21T04:29:48;16.31;;;15.75;;
54328;SDS011;40710;51.120;13.136;2022-11-21T04:32:13;15.42;;;14.79;;
54328;SDS011;40710;51.120;13.136;2022-11-21T04:34:37;15.00;;;14.36;;
54328;SDS011;40710;51.120;13.136;2022-11-21T04:37:02;14.31;;;13.85;;
54328;SDS011;40710;51.120;13.136;2022-11-21T04:39:27;14.39;;;14.04;;
54328;SDS011;40710;51.120;13.136;2022-11-21T04:41:51;15.20;;;14.72;;
54328;SDS011;40710;51.120;13.136;2022-11-21T04:44:16;15.68;;;15.11;;
54328;SDS011;40710;51.120;13.136;2022-11-21T04:46:40;16.92;;;16.21;;
54328;SDS011;40710;51.120;13.136;2022-11-21T04:49:05;17.29;;;16.40;;
54328;SDS011;40710;51.120;13.136;2022-11-21T04:51:29;23.99;;;23.23;;
54328;SDS011;40710;51.120;13.136;2022-11-21T04:53:54;33.46;;;32.37;;
54328;SDS011;40710;51.120;13.136;2022-11-21T04:56:19;32.89;;;31.92;;
54328;SDS011;40710;51.120;13.136;2022-11-21T04:58:43;28.35;;;27.61;;
54328;SDS011;40710;51.120;13.136;2022-11-21T05:01:08;24.53;;;24.01;;
54328;SDS011;40710;51.120;13.136;2022-11-21T05:03:32;28.26;;;27.37;;
54328;SDS011;40710;51.120;13.136;2022-11-21T05:05:57;36.97;;;35.88;;
54328;SDS011;40710;51.120;13.136;2022-11-21T05:08:22;42.74;;;41.76;;
54328;SDS011;40710;51.120;13.136;2022-11-21T05:10:46;43.09;;;41.56;;
54328;SDS011;40710;51.120;13.136;2022-11-21T05:13:29;39.37;;;38.40;;
54328;SDS011;40710;51.120;13.136;2022-11-21T05:15:57;36.51;;;35.37;;
54328;SDS011;40710;51.120;13.136;2022-11-21T05:18:21;32.09;;;31.18;;
54328;SDS011;40710;51.120;13.136;2022-11-21T05:20:46;28.89;;;28.30;;
54328;SDS011;40710;51.120;13.136;2022-11-21T05:23:10;27.91;;;27.25;;
54328;SDS011;40710;51.120;13.136;2022-11-21T05:25:35;27.28;;;26.60;;
54328;SDS011;40710;51.120;13.136;2022-11-21T05:28:00;26.49;;;25.92;;
54328;SDS011;40710;51.120;13.136;2022-11-21T05:30:24;23.09;;;22.46;;
54328;SDS011;40710;51.120;13.136;2022-11-21T05:32:49;26.05;;;25.43;;
54328;SDS011;40710;51.120;13.136;2022-11-21T05:35:13;27.17;;;26.63;;
54328;SDS011;40710;51.120;13.136;2022-11-21T05:37:38;27.46;;;26.78;;
54328;SDS011;40710;51.120;13.136;2022-11-21T05:40:02;26.07;;;25.26;;
54328;SDS011;40710;51.120;13.136;2022-11-21T05:42:27;23.00;;;22.14;;
54328;SDS011;40710;51.120;13.136;2022-11-21T05:45:10;20.96;;;20.21;;
54328;SDS011;40710;51.120;13.136;2022-11-21T05:47:35;20.17;;;19.58;;
54328;SDS011;40710;51.120;13.136;2022-11-21T05:49:59;20.28;;;19.52;;
54328;SDS011;40710;51.120;13.136;2022-11-21T05:52:24;18.28;;;17.66;;
54328;SDS011;40710;51.120;13.136;2022-11-21T05:54:48;16.10;;;15.56;;
54328;SDS011;40710;51.120;13.136;2022-11-21T05:57:13;15.19;;;14.72;;
54328;SDS011;40710;51.120;13.136;2022-11-21T05:59:37;13.14;;;12.71;;
54328;SDS011;40710;51.120;13.136;2022-11-21T06:02:02;13.62;;;13.21;;
54328;SDS011;40710;51.120;13.136;2022-11-21T06:04:45;12.26;;;11.88;;
54328;SDS011;40710;51.120;13.136;2022-11-21T06:07:10;10.43;;;10.07;;
54328;SDS011;40710;51.120;13.136;2022-11-21T06:09:34;9.79;;;9.49;;
54328;SDS011;40710;51.120;13.136;2022-11-21T06:11:59;9.79;;;9.51;;
54328;SDS011;40710;51.120;13.136;2022-11-21T06:14:23;10.19;;;9.83;;
54328;SDS011;40710;51.120;13.136;2022-11-21T06:16:48;9.77;;;9.49;;
54328;SDS011;40710;51.120;13.136;2022-11-21T06:19:13;9.75;;;9.58;;
54328;SDS011;40710;51.120;13.136;2022-11-21T06:21:38;10.80;;;10.46;;
54328;SDS011;40710;51.120;13.136;2022-11-21T06:24:02;11.55;;;11.19;;
54328;SDS011;40710;51.120;13.136;2022-11-21T06:26:27;12.03;;;11.66;;
54328;SDS011;40710;51.120;13.136;2022-11-21T06:28:52;13.22;;;12.84;;
54328;SDS011;40710;51.120;13.136;2022-11-21T06:31:19;14.18;;;13.75;;
54328;SDS011;40710;51.120;13.136;2022-11-21T06:33:45;14.75;;;14.20;;
54328;SDS011;40710;51.120;13.136;2022-11-21T06:36:11;15.64;;;14.91;;
54328;SDS011;40710;51.120;13.136;2022-11-21T06:38:38;16.98;;;16.36;;
54328;SDS011;40710;51.120;13.136;2022-11-21T06:41:10;17.89;;;17.13;;
54328;SDS011;40710;51.120;13.136;2022-11-21T06:43:37;18.55;;;17.71;;
54328;SDS011;40710;51.120;13.136;2022-11-21T06:46:03;17.90;;;17.27;;
54328;SDS011;40710;51.120;13.136;2022-11-21T06:48:27;19.08;;;18.29;;
54328;SDS011;40710;51.120;13.136;2022-11-21T06:50:52;19.99;;;19.06;;
54328;SDS011;40710;51.120;13.136;2022-11-21T06:53:16;20.94;;;19.74;;
54328;SDS011;40710;51.120;13.136;2022-11-21T06:55:41;21.29;;;20.30;;
54328;SDS011;40710;51.120;13.136;2022-11-21T06:58:05;21.14;;;20.35;;
54328;SDS011;40710;51.120;13.136;2022-11-21T07:00:30;22.21;;;21.30;;
54328;SDS011;40710;51.120;13.136;2022-11-21T07:02:59;22.42;;;21.31;;
54328;SDS011;40710;51.120;13.136;2022-11-21T07:05:24;23.75;;;22.64;;
54328;SDS011;40710;51.120;13.136;2022-11-21T07:07:49;24.99;;;23.65;;
54328;SDS011;40710;51.120;13.136;2022-11-21T07:10:14;26.75;;;25.15;;
54328;SDS011;40710;51.120;13.136;2022-11-21T07:12:39;26.67;;;25.00;;
54328;SDS011;40710;51.120;13.136;2022-11-21T07:15:43;26.49;;;25.03;;
54328;SDS011;40710;51.120;13.136;2022-11-21T07:18:08;25.43;;;24.13;;
54328;SDS011;40710;51.120;13.136;2022-11-21T07:20:33;24.08;;;23.07;;
54328;SDS011;40710;51.120;13.136;2022-11-21T07:22:57;24.55;;;23.46;;
54328;SDS011;40710;51.120;13.136;2022-11-21T07:25:22;24.54;;;23.42;;
54328;SDS011;40710;51.120;13.136;2022-11-21T07:27:46;24.82;;;23.70;;
54328;SDS011;40710;51.120;13.136;2022-11-21T07:30:11;25.80;;;24.66;;
54328;SDS011;40710;51.120;13.136;2022-11-21T07:32:36;26.12;;;24.85;;
54328;SDS011;40710;51.120;13.136;2022-11-21T07:35:01;27.24;;;26.10;;
54328;SDS011;40710;51.120;13.136;2022-11-21T07:37:26;28.57;;;27.16;;
54328;SDS011;40710;51.120;13.136;2022-11-21T07:39:50;29.97;;;28.55;;
54328;SDS011;40710;51.120;13.136;2022-11-21T07:42:15;30.72;;;29.29;;
54328;SDS011;40710;51.120;13.136;2022-11-21T07:44:39;29.42;;;28.12;;
54328;SDS011;40710;51.120;13.136;2022-11-21T07:47:04;29.78;;;27.99;;
54328;SDS011;40710;51.120;13.136;2022-11-21T07:49:28;29.22;;;27.82;;
54328;SDS011;40710;51.120;13.136;2022-11-21T07:51:53;28.70;;;27.45;;
54328;SDS011;40710;51.120;13.136;2022-11-21T07:54:17;29.07;;;27.62;;
54328;SDS011;40710;51.120;13.136;2022-11-21T07:56:42;29.13;;;27.43;;
54328;SDS011;40710;51.120;13.136;2022-11-21T07:59:10;29.61;;;28.17;;
54328;SDS011;40710;51.120;13.136;2022-11-21T08:01:34;29.96;;;28.54;;
54328;SDS011;40710;51.120;13.136;2022-11-21T08:03:59;29.54;;;27.82;;
54328;SDS011;40710;51.120;13.136;2022-11-21T08:06:23;28.80;;;27.21;;
54328;SDS011;40710;51.120;13.136;2022-11-21T08:08:51;28.65;;;27.24;;
54328;SDS011;40710;51.120;13.136;2022-11-21T08:11:17;28.58;;;26.95;;
54328;SDS011;40710;51.120;13.136;2022-11-21T08:13:45;35.27;;;33.34;;
54328;SDS011;40710;51.120;13.136;2022-11-21T08:16:09;33.60;;;31.37;;
54328;SDS011;40710;51.120;13.136;2022-11-21T08:18:34;27.06;;;25.45;;
54328;SDS011;40710;51.120;13.136;2022-11-21T08:20:59;26.84;;;25.69;;
54328;SDS011;40710;51.120;13.136;2022-11-21T08:23:27;27.67;;;26.23;;
54328;SDS011;40710;51.120;13.136;2022-11-21T08:25:52;28.41;;;26.51;;
54328;SDS011;40710;51.120;13.136;2022-11-21T08:28:18;29.42;;;27.43;;
54328;SDS011;40710;51.120;13.136;2022-11-21T08:30:43;29.62;;;27.50;;
54328;SDS011;40710;51.120;13.136;2022-11-21T08:33:07;28.46;;;26.79;;
54328;SDS011;40710;51.120;13.136;2022-11-21T08:35:34;28.36;;;26.75;;
54328;SDS011;40710;51.120;13.136;2022-11-21T08:38:00;27.85;;;26.27;;
54328;SDS011;40710;51.120;13.136;2022-11-21T08:40:26;28.15;;;26.78;;
54328;SDS011;40710;51.120;13.136;2022-11-21T08:43:00;29.54;;;27.74;;
54328;SDS011;40710;51.120;13.136;2022-11-21T08:45:30;29.26;;;27.73;;
54328;SDS011;40710;51.120;13.136;2022-11-21T08:47:56;29.67;;;27.82;;
54328;SDS011;40710;51.120;13.136;2022-11-21T08:50:21;28.84;;;26.95;;
54328;SDS011;40710;51.120;13.136;2022-11-21T08:52:47;29.00;;;27.05;;
54328;SDS011;40710;51.120;13.136;2022-11-21T08:55:12;29.54;;;27.52;;
54328;SDS011;40710;51.120;13.136;2022-11-21T08:57:37;28.93;;;27.30;;
54328;SDS011;40710;51.120;13.136;2022-11-21T09:00:17;29.17;;;27.12;;
54328;SDS011;40710;51.120;13.136;2022-11-21T09:02:42;27.75;;;26.16;;
54328;SDS011;40710;51.120;13.136;2022-11-21T09:05:07;25.70;;;24.32;;
54328;SDS011;40710;51.120;13.136;2022-11-21T09:07:32;28.23;;;26.44;;
54328;SDS011;40710;51.120;13.136;2022-11-21T09:09:57;28.49;;;26.69;;
54328;SDS011;40710;51.120;13.136;2022-11-21T09:12:21;27.30;;;25.96;;
54328;SDS011;40710;51.120;13.136;2022-11-21T09:14:46;30.58;;;28.43;;
54328;SDS011;40710;51.120;13.136;2022-11-21T09:17:30;29.85;;;27.75;;
54328;SDS011;40710;51.120;13.136;2022-11-21T09:20:14;29.43;;;27.49;;
54328;SDS011;40710;51.120;13.136;2022-11-21T09:22:38;29.26;;;27.62;;
54328;SDS011;40710;51.120;13.136;2022-11-21T09:25:04;30.05;;;28.06;;
54328;SDS011;40710;51.120;13.136;2022-11-21T09:27:29;29.24;;;27.31;;
54328;SDS011;40710;51.120;13.136;2022-11-21T09:29:54;29.02;;;27.55;;
54328;SDS011;40710;51.120;13.136;2022-11-21T09:32:19;30.35;;;28.40;;
54328;SDS011;40710;51.120;13.136;2022-11-21T09:34:44;31.08;;;28.81;;
54328;SDS011;40710;51.120;13.136;2022-11-21T09:37:09;31.33;;;29.18;;
54328;SDS011;40710;51.120;13.136;2022-11-21T09:39:33;47.07;;;44.01;;
54328;SDS011;40710;51.120;13.136;2022-11-21T09:47:16;32.11;;;29.74;;
54328;SDS011;40710;51.120;13.136;2022-11-21T09:49:51;33.28;;;30.98;;
54328;SDS011;40710;51.120;13.136;2022-11-21T09:52:53;33.45;;;31.22;;
54328;SDS011;40710;51.120;13.136;2022-11-21T09:55:38;33.91;;;31.19;;
54328;SDS011;40710;51.120;13.136;2022-11-21T10:01:00;34.66;;;32.26;;
54328;SDS011;40710;51.120;13.136;2022-11-21T10:03:26;31.91;;;29.84;;
54328;SDS011;40710;51.120;13.136;2022-11-21T10:05:56;32.00;;;29.88;;
54328;SDS011;40710;51.120;13.136;2022-11-21T10:08:28;33.84;;;31.16;;
54328;SDS011;40710;51.120;13.136;2022-11-21T10:11:08;32.33;;;30.05;;
54328;SDS011;40710;51.120;13.136;2022-11-21T10:13:53;32.48;;;30.26;;
54328;SDS011;40710;51.120;13.136;2022-11-21T10:16:43;33.76;;;31.35;;
54328;SDS011;40710;51.120;13.136;2022-11-21T10:19:40;33.20;;;31.25;;
54328;SDS011;40710;51.120;13.136;2022-11-21T10:22:32;34.82;;;32.57;;
54328;SDS011;40710;51.120;13.136;2022-11-21T10:25:10;34.16;;;32.12;;
54328;SDS011;40710;51.120;13.136;2022-11-21T10:27:49;35.15;;;32.97;;
54328;SDS011;40710;51.120;13.136;2022-11-21T10:30:20;35.30;;;33.13;;
54328;SDS011;40710;51.120;13.136;2022-11-21T10:32:46;32.60;;;30.75;;
54328;SDS011;40710;51.120;13.136;2022-11-21T10:35:19;30.95;;;29.05;;
54328;SDS011;40710;51.120;13.136;2022-11-21T10:37:48;28.29;;;26.95;;
54328;SDS011;40710;51.120;13.136;2022-11-21T10:46:00;92.98;;;86.47;;
54328;SDS011;40710;51.120;13.136;2022-11-21T10:48:25;45.76;;;42.75;;
54328;SDS011;40710;51.120;13.136;2022-11-21T10:50:58;26.73;;;25.62;;
54328;SDS011;40710;51.120;13.136;2022-11-21T10:53:47;23.71;;;22.64;;
54328;SDS011;40710;51.120;13.136;2022-11-21T10:56:48;24.50;;;23.44;;
54328;SDS011;40710;51.120;13.136;2022-11-21T10:59:23;26.09;;;24.65;;
54328;SDS011;40710;51.120;13.136;2022-11-21T11:01:56;27.41;;;25.92;;
54328;SDS011;40710;51.120;13.136;2022-11-21T11:04:29;28.49;;;26.77;;
54328;SDS011;40710;51.120;13.136;2022-11-21T11:06:55;28.68;;;26.89;;
54328;SDS011;40710;51.120;13.136;2022-11-21T11:09:29;28.17;;;26.67;;
54328;SDS011;40710;51.120;13.136;2022-11-21T11:15:23;29.43;;;27.74;;
54328;SDS011;40710;51.120;13.136;2022-11-21T11:17:54;32.29;;;30.46;;
54328;SDS011;40710;51.120;13.136;2022-11-21T11:20:29;30.67;;;28.73;;
54328;SDS011;40710;51.120;13.136;2022-11-21T11:25:46;27.81;;;26.16;;
54328;SDS011;40710;51.120;13.136;2022-11-21T11:28:16;29.86;;;28.33;;
54328;SDS011;40710;51.120;13.136;2022-11-21T11:30:42;30.43;;;28.74;;
54328;SDS011;40710;51.120;13.136;2022-11-21T11:33:28;28.17;;;26.53;;
54328;SDS011;40710;51.120;13.136;2022-11-21T11:35:53;28.18;;;26.72;;
54328;SDS011;40710;51.120;13.136;2022-11-21T11:38:25;28.45;;;26.90;;
54328;SDS011;40710;51.120;13.136;2022-11-21T11:40:54;28.07;;;26.58;;
54328;SDS011;40710;51.120;13.136;2022-11-21T11:43:27;36.45;;;33.01;;
54328;SDS011;40710;51.120;13.136;2022-11-21T11:47:11;28.95;;;27.34;;
54328;SDS011;40710;51.120;13.136;2022-11-21T11:49:36;29.10;;;27.02;;
54328;SDS011;40710;51.120;13.136;2022-11-21T11:52:34;28.47;;;26.63;;
54328;SDS011;40710;51.120;13.136;2022-11-21T11:55:19;30.83;;;28.65;;
54328;SDS011;40710;51.120;13.136;2022-11-21T11:57:55;30.36;;;28.51;;
54328;SDS011;40710;51.120;13.136;2022-11-21T12:00:34;30.05;;;28.42;;
54328;SDS011;40710;51.120;13.136;2022-11-21T12:03:13;30.87;;;29.13;;
54328;SDS011;40710;51.120;13.136;2022-11-21T12:05:59;31.67;;;29.49;;
54328;SDS011;40710;51.120;13.136;2022-11-21T12:11:14;64.07;;;59.36;;
54328;SDS011;40710;51.120;13.136;2022-11-21T12:14:17;62.88;;;57.39;;
54328;SDS011;40710;51.120;13.136;2022-11-21T12:17:48;32.76;;;30.54;;
54328;SDS011;40710;51.120;13.136;2022-11-21T12:20:43;33.89;;;31.45;;
54328;SDS011;40710;51.120;13.136;2022-11-21T12:23:27;33.17;;;31.00;;
54328;SDS011;40710;51.120;13.136;2022-11-21T12:43:59;31.60;;;29.36;;
54328;SDS011;40710;51.120;13.136;2022-11-21T12:46:44;31.79;;;29.89;;
54328;SDS011;40710;51.120;13.136;2022-11-21T12:52:48;31.99;;;29.54;;
54328;SDS011;40710;51.120;13.136;2022-11-21T12:55:43;32.30;;;30.26;;
54328;SDS011;40710;51.120;13.136;2022-11-21T12:58:11;32.90;;;30.63;;
54328;SDS011;40710;51.120;13.136;2022-11-21T13:00:54;37.04;;;34.36;;
54328;SDS011;40710;51.120;13.136;2022-11-21T13:03:31;38.81;;;35.85;;
54328;SDS011;40710;51.120;13.136;2022-11-21T13:06:11;33.78;;;31.64;;
54328;SDS011;40710;51.120;13.136;2022-11-21T13:08:41;33.81;;;31.74;;
54328;SDS011;40710;51.120;13.136;2022-11-21T13:11:10;33.84;;;31.27;;
54328;SDS011;40710;51.120;13.136;2022-11-21T13:14:26;35.27;;;32.27;;
54328;SDS011;40710;51.120;13.136;2022-11-21T13:17:03;34.87;;;32.02;;
54328;SDS011;40710;51.120;13.136;2022-11-21T13:19:59;35.23;;;32.29;;
54328;SDS011;40710;51.120;13.136;2022-11-21T13:30:35;37.24;;;34.00;;
54328;SDS011;40710;51.120;13.136;2022-11-21T13:35:58;38.33;;;34.81;;
54328;SDS011;40710;51.120;13.136;2022-11-21T13:38:22;38.94;;;35.56;;
54328;SDS011;40710;51.120;13.136;2022-11-21T13:40:47;41.29;;;38.00;;
54328;SDS011;40710;51.120;13.136;2022-11-21T13:43:30;43.03;;;39.01;;
54328;SDS011;40710;51.120;13.136;2022-11-21T13:45:54;42.91;;;38.92;;
54328;SDS011;40710;51.120;13.136;2022-11-21T13:57:03;41.07;;;37.10;;
54328;SDS011;40710;51.120;13.136;2022-11-21T14:02:13;37.51;;;34.31;;
54328;SDS011;40710;51.120;13.136;2022-11-21T14:07:30;37.36;;;34.36;;
54328;SDS011;40710;51.120;13.136;2022-11-21T14:09:58;37.61;;;34.57;;
54328;SDS011;40710;51.120;13.136;2022-11-21T14:12:28;37.62;;;34.31;;
54328;SDS011;40710;51.120;13.136;2022-11-21T14:17:42;36.77;;;33.51;;
54328;SDS011;40710;51.120;13.136;2022-11-21T14:22:52;36.27;;;33.60;;
54328;SDS011;40710;51.120;13.136;2022-11-21T14:28:04;35.32;;;32.62;;
54328;SDS011;40710;51.120;13.136;2022-11-21T14:30:37;36.12;;;33.14;;
54328;SDS011;40710;51.120;13.136;2022-11-21T14:35:59;36.77;;;33.82;;
54328;SDS011;40710;51.120;13.136;2022-11-21T14:38:28;36.85;;;33.91;;
54328;SDS011;40710;51.120;13.136;2022-11-21T14:43:46;37.23;;;34.44;;
54328;SDS011;40710;51.120;13.136;2022-11-21T14:46:13;37.85;;;34.81;;
54328;SDS011;40710;51.120;13.136;2022-11-21T14:48:41;37.82;;;35.14;;
54328;SDS011;40710;51.120;13.136;2022-11-21T14:51:07;36.85;;;34.15;;
54328;SDS011;40710;51.120;13.136;2022-11-21T14:53:38;36.53;;;33.83;;
54328;SDS011;40710;51.120;13.136;2022-11-21T14:56:07;36.74;;;33.30;;
54328;SDS011;40710;51.120;13.136;2022-11-21T14:58:35;35.78;;;32.89;;
54328;SDS011;40710;51.120;13.136;2022-11-21T15:01:00;35.58;;;32.73;;
54328;SDS011;40710;51.120;13.136;2022-11-21T15:03:26;33.83;;;31.18;;
54328;SDS011;40710;51.120;13.136;2022-11-21T15:06:01;33.57;;;31.37;;
54328;SDS011;40710;51.120;13.136;2022-11-21T15:08:28;33.62;;;31.14;;
54328;SDS011;40710;51.120;13.136;2022-11-21T15:10:52;36.76;;;33.77;;
54328;SDS011;40710;51.120;13.136;2022-11-21T15:13:21;43.09;;;39.57;;
54328;SDS011;40710;51.120;13.136;2022-11-21T15:15:51;36.13;;;33.55;;
54328;SDS011;40710;51.120;13.136;2022-11-21T15:18:22;34.15;;;31.55;;
54328;SDS011;40710;51.120;13.136;2022-11-21T15:20:50;35.87;;;32.65;;
54328;SDS011;40710;51.120;13.136;2022-11-21T15:23:25;33.78;;;31.22;;
54328;SDS011;40710;51.120;13.136;2022-11-21T15:26:01;34.12;;;31.61;;
54328;SDS011;40710;51.120;13.136;2022-11-21T15:28:27;33.49;;;30.87;;
54328;SDS011;40710;51.120;13.136;2022-11-21T15:36:29;36.79;;;33.63;;
54328;SDS011;40710;51.120;13.136;2022-11-21T15:38:56;35.52;;;32.24;;
54328;SDS011;40710;51.120;13.136;2022-11-21T15:41:30;34.43;;;31.77;;
54328;SDS011;40710;51.120;13.136;2022-11-21T15:46:30;34.05;;;31.69;;
54328;SDS011;40710;51.120;13.136;2022-11-21T15:49:05;36.40;;;33.52;;
54328;SDS011;40710;51.120;13.136;2022-11-21T15:51:33;34.93;;;32.23;;
54328;SDS011;40710;51.120;13.136;2022-11-21T15:53:59;32.97;;;30.50;;
54328;SDS011;40710;51.120;13.136;2022-11-21T15:56:24;31.26;;;29.24;;
54328;SDS011;40710;51.120;13.136;2022-11-21T15:58:49;33.23;;;30.88;;